Terminal Aerodrome Forecast
Issued by NWS Topeka, KS

Home | Current Version | Previous Version | Graphics & Text | Print | Product List | Glossary On
Versions: 1 2 3 4 5 6 7 8 9 10 11 12 13 14 15
500
FTUS43 KTOP 262325
TAFTOP
TAF
KTOP 262325Z 2700/2724 02004KT P6SM SKC
     FM270700 09004KT P6SM SCT045 SCT250
     FM271500 11008KT P6SM SCT020 BKN025
     FM271800 13008KT P6SM VCTS SCT025 BKN035CB=

USA.gov is the U.S. government's official web portal to all federal, state and local government web resources and services.